Time;durP1;ratioP1;P1;durP2;ratioP2;P2;SDS_P1;SDS_P2;PMS_P1;PMS_P2;Temp;Humidity;BMP_temperature;BMP_pressure;BME280_temperature;BME280_humidity;BME280_pressure;Samples;Min_cycle;Max_cycle;Signal;HPM_P1;HPM_P2
2023/11/28 06:34:30;;;;;;;;;;;;;;;3.94;77.94;97647.28;1088421;54;1433;-81
2023/11/28 06:35:34;;;;;;;;;;;;;;;3.86;78.14;97653.38;1088531;47;945;-80
2023/11/28 06:36:37;;;;;;;;;;;;;;;3.88;78.27;97658.50;1088513;46;899;-81
2023/11/28 06:37:38;;;;;;;;;;;;;;;3.74;78.49;97657.31;1088529;54;1842;-80
2023/11/28 06:38:42;;;;;;;;;;;;;;;3.73;78.95;97668.88;1088605;54;1035;-84
2023/11/28 06:39:45;;;;;;;;;;;;;;;3.55;79.21;97661.00;1088578;54;951;-80
2023/11/28 06:40:54;;;;;;;;;;;;;;;3.51;79.85;97671.06;1088467;54;896;-81
2023/11/28 06:42:00;;;;;;;;;;;;;;;3.68;79.35;97676.44;1088428;54;1001;-82
2023/11/28 06:43:04;;;;;;;;;;;;;;;3.67;79.32;97678.25;1088510;47;1318;-80
2023/11/28 06:44:05;;;;;;;;;;;;;;;3.62;79.40;97677.06;1088621;54;1002;-82
2023/11/28 06:45:08;;;;;;;;;;;;;;;3.56;79.70;97683.81;1088561;54;871;-81
2023/11/28 06:46:12;;;;;;;;;;;;;;;3.58;79.62;97684.47;1088463;47;967;-81
2023/11/28 06:47:16;;;;;;;;;;;;;;;3.55;79.83;97683.00;1088382;54;883;-81
2023/11/28 06:48:17;;;;;;;;;;;;;;;3.42;79.73;97691.34;1088390;54;943;-81
2023/11/28 06:49:19;;;;;;;;;;;;;;;3.51;79.83;97696.69;1088493;54;913;-82
2023/11/28 06:50:41;;;;;;;;;;;;;;;3.38;80.03;97692.63;1088495;54;1008;-82
2023/11/28 06:51:42;;;;;;;;;;;;;;;3.49;79.44;97699.47;1088446;54;1009;-81
2023/11/28 06:52:46;;;;;;;;;;;;;;;3.50;79.49;97701.13;1088229;47;978;-81
2023/11/28 06:53:47;;;;;;;;;;;;;;;3.43;79.42;97705.38;1088339;46;1145;-80
2023/11/28 06:54:50;;;;;;;;;;;;;;;3.22;80.51;97697.84;1088485;54;1005;-81
2023/11/28 06:55:58;;;;;;;;;;;;;;;3.16;80.52;97717.75;1088326;54;1010;-80
2023/11/28 06:57:01;;;;;;;;;;;;;;;3.27;80.68;97709.59;1088423;47;990;-79
2023/11/28 06:58:02;;;;;;;;;;;;;;;3.12;80.75;97714.59;1088475;46;1848;-81
2023/11/28 06:59:12;;;;;;;;;;;;;;;3.20;80.77;97724.41;1088497;54;997;-81
2023/11/28 07:00:14;;;;;;;;;;;;;;;3.27;80.18;97721.94;1088503;54;1040;-81
2023/11/28 07:01:15;;;;;;;;;;;;;;;3.12;80.79;97727.81;1088295;54;924;-82
2023/11/28 07:02:21;;;;;;;;;;;;;;;3.38;79.83;97726.16;1088429;54;982;-80
2023/11/28 07:03:24;;;;;;;;;;;;;;;3.28;79.85;97729.72;1088612;54;1408;-81
2023/11/28 07:04:30;;;;;;;;;;;;;;;3.15;80.34;97737.22;1088472;54;937;-80
2023/11/28 07:05:31;;;;;;;;;;;;;;;3.24;80.11;97738.94;1088549;47;984;-81
2023/11/28 07:06:38;;;;;;;;;;;;;;;3.11;80.43;97735.88;1088406;47;957;-81
2023/11/28 07:07:41;;;;;;;;;;;;;;;3.23;80.16;97752.31;1088350;54;893;-79
2023/11/28 07:08:47;;;;;;;;;;;;;;;3.30;79.82;97755.16;1088417;54;920;-82
2023/11/28 07:09:47;;;;;;;;;;;;;;;3.28;79.95;97761.44;1088450;54;1010;-81
2023/11/28 07:10:51;;;;;;;;;;;;;;;3.05;80.50;97757.59;1088471;54;1033;-81
2023/11/28 07:11:53;;;;;;;;;;;;;;;3.06;80.48;97764.53;1088426;54;992;-82
2023/11/28 07:12:57;;;;;;;;;;;;;;;3.11;80.59;97770.22;1088366;47;937;-81
2023/11/28 07:13:58;;;;;;;;;;;;;;;3.16;80.13;97767.94;1088476;47;936;-82
2023/11/28 07:15:03;;;;;;;;;;;;;;;3.06;80.76;97780.38;1088455;54;857;-80
2023/11/28 07:16:07;;;;;;;;;;;;;;;3.14;80.44;97782.28;1088536;54;950;-81
2023/11/28 07:17:17;;;;;;;;;;;;;;;3.06;80.84;97790.94;1088394;47;953;-81
2023/11/28 07:18:20;;;;;;;;;;;;;;;3.06;81.08;97793.59;1088343;54;1860;-81
2023/11/28 07:19:30;;;;;;;;;;;;;;;3.04;81.21;97795.53;1088334;54;1024;-81
2023/11/28 07:21:00;;;;;;;;;;;;;;;3.03;80.91;97800.00;1088396;54;965;-83
2023/11/28 07:22:07;;;;;;;;;;;;;;;2.92;81.35;97809.00;1088416;47;965;-81
2023/11/28 07:23:07;;;;;;;;;;;;;;;2.91;81.65;97809.97;1088241;47;1260;-82
2023/11/28 07:24:11;;;;;;;;;;;;;;;2.92;81.74;97819.56;1088348;54;871;-80
2023/11/28 07:25:14;;;;;;;;;;;;;;;2.96;81.65;97820.06;1088574;47;933;-81
2023/11/28 07:26:19;;;;;;;;;;;;;;;2.93;81.69;97829.09;1088239;47;1013;-80
2023/11/28 07:27:19;;;;;;;;;;;;;;;2.97;81.32;97824.38;1088399;54;988;-80
2023/11/28 07:28:24;;;;;;;;;;;;;;;2.92;81.56;97827.47;1088367;54;968;-81
2023/11/28 07:29:25;;;;;;;;;;;;;;;2.95;81.76;97834.25;1088229;54;1039;-83
2023/11/28 07:30:29;;;;;;;;;;;;;;;2.83;81.65;97840.72;1088403;54;1033;-81
2023/11/28 07:31:32;;;;;;;;;;;;;;;3.01;81.43;97832.81;1088218;54;1009;-81
2023/11/28 07:32:33;;;;;;;;;;;;;;;2.88;81.35;97839.28;1088329;47;982;-81
2023/11/28 07:33:36;;;;;;;;;;;;;;;2.75;82.06;97841.44;1088382;54;1369;-80
2023/11/28 07:34:38;;;;;;;;;;;;;;;2.70;81.92;97847.19;1088131;54;1284;-81
2023/11/28 07:35:41;;;;;;;;;;;;;;;2.73;82.12;97854.00;1088057;47;977;-81
2023/11/28 07:36:43;;;;;;;;;;;;;;;2.84;81.75;97853.75;1088296;54;972;-80
2023/11/28 07:37:56;;;;;;;;;;;;;;;2.77;81.74;97850.06;1088246;54;1846;-79
2023/11/28 07:38:57;;;;;;;;;;;;;;;2.96;81.21;97854.38;1088269;47;986;-79
2023/11/28 07:40:01;;;;;;;;;;;;;;;2.87;81.43;97861.38;1088306;54;954;-80
2023/11/28 07:41:02;;;;;;;;;;;;;;;2.85;81.06;97862.50;1088266;54;960;-82
2023/11/28 07:42:06;;;;;;;;;;;;;;;2.83;81.03;97867.97;1088382;54;884;-80
2023/11/28 07:43:08;;;;;;;;;;;;;;;2.89;80.67;97862.06;1088276;54;1336;-81
2023/11/28 07:44:17;;;;;;;;;;;;;;;2.98;80.40;97865.59;1088329;47;955;-80
2023/11/28 07:45:21;;;;;;;;;;;;;;;2.73;80.71;97868.00;1088283;54;928;-81
2023/11/28 07:46:26;;;;;;;;;;;;;;;2.63;80.84;97869.84;1088331;54;974;-80
2023/11/28 07:47:27;;;;;;;;;;;;;;;2.77;80.50;97874.66;1088368;54;1003;-80
2023/11/28 07:48:30;;;;;;;;;;;;;;;2.85;80.53;97881.81;1088292;54;976;-80
2023/11/28 07:49:31;;;;;;;;;;;;;;;3.05;79.55;97885.16;1088236;47;865;-82
2023/11/28 07:50:35;;;;;;;;;;;;;;;3.12;79.53;97885.38;1088162;54;1027;-81
2023/11/28 07:51:44;;;;;;;;;;;;;;;3.20;79.09;97892.56;1088228;47;844;-81
2023/11/28 07:52:47;;;;;;;;;;;;;;;2.82;79.52;97892.69;1088433;47;918;-80
2023/11/28 07:53:51;;;;;;;;;;;;;;;2.99;79.17;97896.31;1088225;54;1335;-80
2023/11/28 07:54:55;;;;;;;;;;;;;;;2.84;79.54;97897.81;1088391;54;997;-81
2023/11/28 07:55:56;;;;;;;;;;;;;;;2.93;79.59;97905.66;1088170;47;955;-79
2023/11/28 07:56:59;;;;;;;;;;;;;;;3.00;79.15;97905.06;1088373;47;980;-82
2023/11/28 07:58:03;;;;;;;;;;;;;;;3.04;78.83;97904.63;1088303;47;1856;-82
2023/11/28 07:59:06;;;;;;;;;;;;;;;2.95;78.88;97902.88;1088320;47;976;-82
2023/11/28 08:00:09;;;;;;;;;;;;;;;2.89;79.36;97912.22;1088389;54;967;-83
2023/11/28 08:01:13;;;;;;;;;;;;;;;2.90;79.20;97910.41;1088278;54;922;-84
2023/11/28 08:02:14;;;;;;;;;;;;;;;2.79;79.83;97924.63;1088233;47;897;-81
2023/11/28 08:03:18;;;;;;;;;;;;;;;2.85;79.75;97923.22;1088245;54;1289;-82
2023/11/28 08:04:19;;;;;;;;;;;;;;;2.92;79.33;97925.13;1088670;54;993;-80
2023/11/28 08:05:23;;;;;;;;;;;;;;;2.88;79.27;97929.03;1088657;46;1161;-83
2023/11/28 08:06:35;;;;;;;;;;;;;;;2.97;78.98;97928.13;1088531;54;971;-81
2023/11/28 08:07:40;;;;;;;;;;;;;;;2.88;79.07;97933.50;1088666;54;1128;-80
2023/11/28 08:08:43;;;;;;;;;;;;;;;3.02;78.65;97932.16;1088667;54;896;-80
2023/11/28 08:09:49;;;;;;;;;;;;;;;3.02;78.53;97934.81;1088697;47;971;-82
2023/11/28 08:10:50;;;;;;;;;;;;;;;2.95;78.95;97945.13;1088722;54;1004;-79
2023/11/28 08:11:54;;;;;;;;;;;;;;;2.95;78.61;97943.28;1088825;46;930;-80
2023/11/28 08:12:57;;;;;;;;;;;;;;;2.92;78.53;97945.41;1088647;47;957;-82
2023/11/28 08:13:58;;;;;;;;;;;;;;;2.91;78.36;97949.00;1088728;54;1019;-80
2023/11/28 08:15:09;;;;;;;;;;;;;;;2.92;78.81;97953.31;1088713;54;1088;-81
2023/11/28 08:16:10;;;;;;;;;;;;;;;2.79;79.23;97949.19;1088741;54;1024;-80
2023/11/28 08:17:14;;;;;;;;;;;;;;;2.94;78.87;97959.28;1088673;47;943;-82
2023/11/28 08:18:15;;;;;;;;;;;;;;;3.05;78.78;97966.16;1088643;54;1842;-81
2023/11/28 08:19:17;;;;;;;;;;;;;;;3.12;78.20;97956.66;1088598;46;988;-82
2023/11/28 08:20:23;;;;;;;;;;;;;;;3.17;78.29;97965.00;1088676;54;900;-81
2023/11/28 08:21:30;;;;;;;;;;;;;;;3.01;78.45;97975.38;1088601;54;922;-82
2023/11/28 08:22:34;;;;;;;;;;;;;;;3.05;78.32;97967.00;1088626;47;944;-82
2023/11/28 08:23:44;;;;;;;;;;;;;;;;;;;;;
2023/11/28 08:25:21;;;;;;;;;;;;;;;2.88;79.07;97981.00;1088785;46;984;-81
2023/11/28 08:31:11;;;;;;;;;;;;;;;3.01;79.05;97999.13;1088790;46;937;-82
2023/11/28 08:32:12;;;;;;;;;;;;;;;3.10;78.75;97990.31;1088688;54;962;-79
2023/11/28 08:33:16;;;;;;;;;;;;;;;3.21;78.24;98002.47;1088587;46;1315;-81
2023/11/28 08:34:17;;;;;;;;;;;;;;;2.97;79.22;98007.34;1088571;47;973;-81
2023/11/28 08:35:28;;;;;;;;;;;;;;;2.88;79.66;98002.94;1088660;46;972;-80
2023/11/28 08:36:30;;;;;;;;;;;;;;;2.93;79.04;98000.66;1087953;46;1191;-81
2023/11/28 08:37:37;;;;;;;;;;;;;;;2.95;79.34;98005.81;1088686;46;1011;-79
2023/11/28 08:38:47;;;;;;;;;;;;;;;2.91;79.43;98017.63;1088564;54;1850;-81
2023/11/28 08:39:48;;;;;;;;;;;;;;;3.16;78.68;98015.31;1088566;46;967;-84
2023/11/28 08:40:53;;;;;;;;;;;;;;;3.16;78.47;98018.78;1088608;54;1012;-80
2023/11/28 08:41:57;;;;;;;;;;;;;;;3.32;78.30;98020.78;1088685;47;952;-81
2023/11/28 08:43:01;;;;;;;;;;;;;;;3.34;78.09;98028.53;1088607;54;1292;-80
2023/11/28 08:44:08;;;;;;;;;;;;;;;3.31;78.22;98020.94;1088670;47;1000;-81
2023/11/28 08:45:12;;;;;;;;;;;;;;;3.49;77.44;98031.50;1088646;54;974;-81
2023/11/28 08:46:23;;;;;;;;;;;;;;;3.26;78.17;98034.56;1088682;54;913;-81
2023/11/28 08:47:24;;;;;;;;;;;;;;;3.15;78.14;98037.41;1088652;47;898;-81
2023/11/28 08:48:28;;;;;;;;;;;;;;;3.05;78.11;98038.28;1088720;54;1005;-81
2023/11/28 08:49:32;;;;;;;;;;;;;;;2.87;78.92;98040.84;1088553;47;984;-82
2023/11/28 08:50:38;;;;;;;;;;;;;;;2.74;79.21;98048.28;1088591;47;1024;-80
2023/11/28 08:51:40;;;;;;;;;;;;;;;2.74;79.35;98054.38;1088630;54;960;-83
2023/11/28 08:52:41;;;;;;;;;;;;;;;2.94;78.50;98059.59;1088563;47;970;-80
2023/11/28 08:53:44;;;;;;;;;;;;;;;3.17;77.86;98065.34;1088549;54;1280;-81
2023/11/28 08:54:53;;;;;;;;;;;;;;;3.16;77.86;98066.31;1088623;54;1052;-81
2023/11/28 08:55:59;;;;;;;;;;;;;;;3.29;77.70;98065.97;1088576;47;953;-80
2023/11/28 08:57:07;;;;;;;;;;;;;;;3.31;77.27;98065.84;1088597;46;1001;-82
2023/11/28 08:58:13;;;;;;;;;;;;;;;3.03;78.25;98079.00;1088579;54;1856;-79
2023/11/28 08:59:14;;;;;;;;;;;;;;;3.30;77.32;98072.09;1088584;54;981;-80
2023/11/28 09:00:39;;;;;;;;;;;;;;;3.31;77.24;98084.31;1088630;54;939;-82
2023/11/28 09:01:40;;;;;;;;;;;;;;;3.40;77.12;98092.19;1088669;54;899;-80
2023/11/28 09:02:45;;;;;;;;;;;;;;;3.27;77.39;98086.41;1088524;54;1014;-80
2023/11/28 09:03:46;;;;;;;;;;;;;;;3.25;77.20;98091.84;1088694;54;1402;-81
2023/11/28 09:04:50;;;;;;;;;;;;;;;3.21;77.50;98087.81;1088735;46;879;-82
2023/11/28 09:05:51;;;;;;;;;;;;;;;3.17;77.51;98096.16;1088644;54;999;-79
2023/11/28 09:06:55;;;;;;;;;;;;;;;3.36;76.79;98090.81;1088929;46;884;-79
2023/11/28 09:07:57;;;;;;;;;;;;;;;3.43;76.67;98102.47;1088559;47;889;-83
2023/11/28 09:09:00;;;;;;;;;;;;;;;3.24;76.85;98107.84;1088655;54;907;-81
2023/11/28 09:10:01;;;;;;;;;;;;;;;3.33;76.80;98108.75;1088677;54;970;-81
2023/11/28 09:11:05;;;;;;;;;;;;;;;3.24;76.84;98103.38;1088674;47;912;-80
2023/11/28 09:12:20;;;;;;;;;;;;;;;3.12;77.01;98109.81;1088701;54;991;-80
2023/11/28 09:13:26;;;;;;;;;;;;;;;3.41;76.47;98114.13;1088589;54;1363;-80
2023/11/28 09:14:29;;;;;;;;;;;;;;;3.47;76.25;98108.28;1088536;47;956;-80
2023/11/28 09:15:35;;;;;;;;;;;;;;;3.42;75.92;98114.00;1088438;47;1003;-81
2023/11/28 09:16:36;;;;;;;;;;;;;;;3.57;75.59;98113.50;1088598;54;890;-81
2023/11/28 09:17:46;;;;;;;;;;;;;;;3.54;75.85;98124.38;1088587;54;959;-80
2023/11/28 09:18:47;;;;;;;;;;;;;;;3.58;75.42;98126.59;1088595;54;1845;-81
2023/11/28 09:19:56;;;;;;;;;;;;;;;3.67;74.95;98122.22;1088552;47;1195;-81
2023/11/28 09:20:57;;;;;;;;;;;;;;;3.61;74.89;98129.91;1088651;54;1035;-82
2023/11/28 09:22:07;;;;;;;;;;;;;;;3.71;74.71;98138.59;1088576;54;998;-83
2023/11/28 09:23:16;;;;;;;;;;;;;;;3.51;74.50;98136.06;1088545;54;1396;-82
2023/11/28 09:24:20;;;;;;;;;;;;;;;3.64;74.20;98145.47;1088653;47;906;-82
2023/11/28 09:25:28;;;;;;;;;;;;;;;3.82;73.62;98142.88;1088504;54;950;-81
2023/11/28 09:26:48;;;;;;;;;;;;;;;3.90;73.20;98142.97;1088617;54;1056;-82
2023/11/28 09:27:49;;;;;;;;;;;;;;;3.82;73.06;98154.28;1088647;54;909;-82
2023/11/28 09:29:01;;;;;;;;;;;;;;;3.82;73.38;98151.63;1088610;54;933;-81
2023/11/28 09:30:15;;;;;;;;;;;;;;;3.65;73.03;98152.41;1088647;54;978;-81
2023/11/28 09:31:16;;;;;;;;;;;;;;;3.87;72.41;98154.63;1088566;54;943;-79
2023/11/28 09:32:20;;;;;;;;;;;;;;;3.49;73.22;98153.03;1088645;54;960;-82
2023/11/28 09:33:21;;;;;;;;;;;;;;;3.69;72.63;98164.34;1088410;46;1194;-81
2023/11/28 09:34:22;;;;;;;;;;;;;;;3.85;72.40;98169.84;1088568;46;955;-82
2023/11/28 09:35:29;;;;;;;;;;;;;;;3.93;72.16;98170.91;1088613;54;917;-81
2023/11/28 09:36:36;;;;;;;;;;;;;;;3.93;71.89;98165.63;1088612;54;947;-81
2023/11/28 09:37:46;;;;;;;;;;;;;;;3.94;71.64;98169.94;1088322;54;1107;-80
2023/11/28 09:38:47;;;;;;;;;;;;;;;4.00;71.16;98178.09;1088029;54;1861;-82
2023/11/28 09:39:50;;;;;;;;;;;;;;;4.00;70.49;98171.97;1088614;54;1012;-81
2023/11/28 09:40:51;;;;;;;;;;;;;;;3.90;70.74;98180.78;1088644;54;1012;-83
2023/11/28 09:41:55;;;;;;;;;;;;;;;3.99;70.72;98180.88;1088688;54;944;-82
2023/11/28 09:42:56;;;;;;;;;;;;;;;3.80;71.14;98182.66;1088618;46;939;-82
2023/11/28 09:44:03;;;;;;;;;;;;;;;3.85;71.07;98180.41;1088487;54;1438;-81
2023/11/28 09:45:14;;;;;;;;;;;;;;;3.81;71.01;98186.16;1088615;47;942;-82
2023/11/28 09:46:18;;;;;;;;;;;;;;;3.83;70.91;98182.38;1088588;54;965;-82
2023/11/28 09:47:21;;;;;;;;;;;;;;;3.99;70.60;98178.25;1088639;54;1361;-79
2023/11/28 09:48:24;;;;;;;;;;;;;;;3.98;70.42;98195.94;1088583;47;996;-82
2023/11/28 09:49:26;;;;;;;;;;;;;;;3.98;70.44;98192.44;1088647;47;944;-83
2023/11/28 09:50:30;;;;;;;;;;;;;;;4.12;70.25;98186.66;1088803;46;890;-81
2023/11/28 09:51:40;;;;;;;;;;;;;;;4.23;69.91;98188.25;1088523;54;989;-81
2023/11/28 09:52:45;;;;;;;;;;;;;;;4.05;70.35;98189.06;1088678;54;1005;-81
2023/11/28 09:53:46;;;;;;;;;;;;;;;3.99;70.26;98199.38;1088618;54;1297;-80
2023/11/28 09:54:48;;;;;;;;;;;;;;;3.97;69.74;98202.19;1088661;54;975;-80
2023/11/28 09:55:53;;;;;;;;;;;;;;;3.99;69.93;98200.25;1088691;54;985;-81
2023/11/28 09:57:00;;;;;;;;;;;;;;;4.03;69.94;98206.06;1088609;46;979;-81
2023/11/28 09:58:06;;;;;;;;;;;;;;;4.11;69.31;98215.91;1088613;54;973;-82
2023/11/28 09:59:15;;;;;;;;;;;;;;;4.25;69.18;98209.28;1088618;54;1848;-81
2023/11/28 10:03:48;;;;;;;;;;;;;;;4.10;69.02;98220.34;1088521;47;1386;-82
2023/11/28 10:04:58;;;;;;;;;;;;;;;4.12;69.34;98221.03;1088643;54;1140;-81
2023/11/28 10:41:14;;;;;;;;;;;;;;;3.94;68.04;98295.00;1088535;54;2132;-79
2023/11/28 10:42:17;;;;;;;;;;;;;;;4.00;67.95;98294.47;1088798;54;970;-81
2023/11/28 10:43:23;;;;;;;;;;;;;;;4.05;67.38;98296.66;1088873;54;1328;-81
2023/11/28 10:44:26;;;;;;;;;;;;;;;3.99;67.59;98292.78;1088490;54;1020;-82
2023/11/28 10:45:31;;;;;;;;;;;;;;;3.97;67.36;98299.19;1088651;54;989;-81
2023/11/28 10:46:33;;;;;;;;;;;;;;;3.74;67.75;98302.19;1088597;54;1021;-81
2023/11/28 10:47:39;;;;;;;;;;;;;;;3.89;67.74;98310.50;1088600;54;907;-81
2023/11/28 10:48:40;;;;;;;;;;;;;;;3.73;68.14;98308.44;1088584;54;926;-81
2023/11/28 10:49:43;;;;;;;;;;;;;;;3.75;68.17;98307.31;1088583;54;916;-80
2023/11/28 10:50:53;;;;;;;;;;;;;;;3.82;68.20;98312.06;1088723;47;941;-81
2023/11/28 10:51:59;;;;;;;;;;;;;;;3.78;67.82;98316.78;1088574;47;1237;-81
2023/11/28 10:53:05;;;;;;;;;;;;;;;3.81;67.73;98311.22;1088559;54;1224;-81
2023/11/28 10:54:09;;;;;;;;;;;;;;;3.68;67.66;98310.72;1088604;54;922;-81
2023/11/28 10:55:11;;;;;;;;;;;;;;;3.66;67.62;98315.28;1088661;54;925;-82
2023/11/28 10:56:20;;;;;;;;;;;;;;;3.77;67.38;98315.13;1088546;54;1079;-81
2023/11/28 10:57:26;;;;;;;;;;;;;;;3.78;67.79;98310.66;1088604;54;989;-80
2023/11/28 10:58:30;;;;;;;;;;;;;;;3.84;67.58;98321.50;1088570;47;994;-80
2023/11/28 10:59:34;;;;;;;;;;;;;;;3.83;67.45;98311.91;1088584;54;1852;-80
2023/11/28 11:00:37;;;;;;;;;;;;;;;3.93;67.27;98313.69;1088537;54;1008;-81
2023/11/28 11:01:43;;;;;;;;;;;;;;;3.94;67.10;98310.06;1088469;54;950;-82
2023/11/28 11:02:48;;;;;;;;;;;;;;;3.78;66.94;98321.25;1088553;47;958;-81
2023/11/28 11:03:53;;;;;;;;;;;;;;;3.82;67.27;98322.63;1088558;54;1423;-81
2023/11/28 11:04:57;;;;;;;;;;;;;;;3.84;67.32;98326.78;1088574;54;966;-82
2023/11/28 11:06:01;;;;;;;;;;;;;;;3.87;67.25;98328.31;1088611;54;899;-81
2023/11/28 11:07:03;;;;;;;;;;;;;;;3.88;67.27;98322.03;1088864;46;879;-80
2023/11/28 11:08:06;;;;;;;;;;;;;;;3.79;67.19;98329.00;1088730;46;889;-81
2023/11/28 11:09:08;;;;;;;;;;;;;;;3.69;67.29;98330.84;1088568;54;1001;-80
2023/11/28 11:10:12;;;;;;;;;;;;;;;3.81;67.51;98320.97;1088783;54;1030;-82
2023/11/28 11:12:49;;;;;;;;;;;;;;;3.75;67.47;98327.66;1088545;54;939;-82
2023/11/28 11:14:02;;;;;;;;;;;;;;;3.87;67.21;98337.06;1088540;54;1383;-81
2023/11/28 11:15:08;;;;;;;;;;;;;;;3.92;67.00;98338.44;1088437;47;971;-80
2023/11/28 11:16:12;;;;;;;;;;;;;;;3.85;66.80;98339.03;1088509;54;877;-82
2023/11/28 11:17:20;;;;;;;;;;;;;;;3.80;66.87;98357.13;1088549;54;980;-81
2023/11/28 11:18:27;;;;;;;;;;;;;;;3.86;66.78;98351.28;1088551;54;949;-82
2023/11/28 11:19:31;;;;;;;;;;;;;;;3.65;67.33;98354.09;1088514;54;1870;-82
2023/11/28 11:20:35;;;;;;;;;;;;;;;3.86;67.27;98364.50;1088576;54;1014;-81
2023/11/28 11:21:39;;;;;;;;;;;;;;;3.66;67.38;98361.03;1088524;54;995;-80
2023/11/28 11:22:51;;;;;;;;;;;;;;;3.79;67.17;98360.72;1088530;54;996;-81
2023/11/28 11:24:25;;;;;;;;;;;;;;;3.72;67.00;98371.06;1088362;47;1212;-79
2023/11/28 11:26:12;;;;;;;;;;;;;;;3.86;66.78;98366.28;1088552;47;963;-82
2023/11/28 11:27:13;;;;;;;;;;;;;;;3.83;66.65;98370.06;1088427;54;960;-81
2023/11/28 11:28:25;;;;;;;;;;;;;;;3.92;66.41;98378.94;1088540;54;871;-81
2023/11/28 11:29:38;;;;;;;;;;;;;;;3.85;66.27;98381.34;1088418;54;1012;-80
2023/11/28 11:31:04;;;;;;;;;;;;;;;3.64;66.80;98378.03;1088458;47;937;-82
2023/11/28 11:32:10;;;;;;;;;;;;;;;3.74;66.45;98384.13;1088491;54;983;-81
2023/11/28 11:33:16;;;;;;;;;;;;;;;3.79;65.94;98384.53;1088428;54;1354;-80
2023/11/28 11:34:41;;;;;;;;;;;;;;;3.69;66.02;98389.00;1088437;47;927;-81
2023/11/28 11:35:59;;;;;;;;;;;;;;;3.59;65.55;98392.47;1088532;54;963;-82
2023/11/28 11:37:10;;;;;;;;;;;;;;;3.46;65.65;98402.53;1088406;47;954;-82
2023/11/28 11:38:42;;;;;;;;;;;;;;;3.40;65.41;98411.00;1088424;54;945;-80
2023/11/28 11:39:50;;;;;;;;;;;;;;;3.47;65.59;98412.13;1088370;54;1849;-79
2023/11/28 11:40:52;;;;;;;;;;;;;;;3.42;65.67;98412.53;1088501;54;1000;-80
2023/11/28 11:42:01;;;;;;;;;;;;;;;3.52;65.51;98407.25;1087739;47;1144;-81
2023/11/28 11:43:05;;;;;;;;;;;;;;;3.49;66.02;98404.91;1088382;47;1146;-79
2023/11/28 11:44:25;;;;;;;;;;;;;;;3.59;65.79;98408.34;1088401;54;959;-81
2023/11/28 11:45:28;;;;;;;;;;;;;;;3.59;65.65;98420.72;1088494;54;1019;-79
2023/11/28 11:46:40;;;;;;;;;;;;;;;3.57;65.59;98415.59;1088489;54;873;-81
2023/11/28 11:47:42;;;;;;;;;;;;;;;3.61;65.72;98425.88;1088373;47;973;-83
2023/11/28 11:48:46;;;;;;;;;;;;;;;3.59;65.84;98418.91;1088532;47;937;-81
2023/11/28 11:49:48;;;;;;;;;;;;;;;3.69;65.71;98423.34;1088459;54;951;-81
2023/11/28 11:50:50;;;;;;;;;;;;;;;3.59;65.80;98429.47;1088450;54;940;-81
2023/11/28 11:52:00;;;;;;;;;;;;;;;3.61;66.17;98432.00;1088533;54;956;-81
2023/11/28 11:53:04;;;;;;;;;;;;;;;3.67;66.07;98431.44;1088472;54;1446;-82
2023/11/28 11:54:08;;;;;;;;;;;;;;;3.75;65.50;98436.03;1088368;54;990;-81
2023/11/28 11:55:10;;;;;;;;;;;;;;;3.69;65.38;98449.78;1088354;54;962;-80
2023/11/28 11:56:14;;;;;;;;;;;;;;;3.65;65.96;98448.41;1088458;54;997;-79
2023/11/28 11:57:23;;;;;;;;;;;;;;;3.63;65.74;98455.63;1088477;54;1065;-80
2023/11/28 11:58:27;;;;;;;;;;;;;;;3.68;65.96;98453.44;1088441;54;976;-80
2023/11/28 11:59:30;;;;;;;;;;;;;;;3.82;65.83;98460.09;1088416;54;1850;-81
2023/11/28 12:00:35;;;;;;;;;;;;;;;3.82;66.10;98460.09;1088422;54;960;-82
2023/11/28 12:01:36;;;;;;;;;;;;;;;3.84;65.75;98461.63;1088462;47;894;-80
2023/11/28 12:02:40;;;;;;;;;;;;;;;3.76;65.94;98469.41;1088486;54;995;-80
2023/11/28 12:03:58;;;;;;;;;;;;;;;3.84;65.22;98469.56;1088488;47;1198;-82
2023/11/28 12:05:03;;;;;;;;;;;;;;;3.78;64.84;98482.47;1088401;54;933;-80
2023/11/28 12:06:06;;;;;;;;;;;;;;;3.69;64.52;98486.78;1088348;54;1014;-82
2023/11/28 12:07:10;;;;;;;;;;;;;;;3.56;64.93;98487.91;1088431;54;936;-81
2023/11/28 12:08:11;;;;;;;;;;;;;;;3.35;65.01;98485.41;1088413;47;983;-80
2023/11/28 12:09:13;;;;;;;;;;;;;;;3.37;65.15;98479.97;1088318;47;977;-81
2023/11/28 12:10:18;;;;;;;;;;;;;;;3.39;65.08;98486.78;1088416;47;882;-79
2023/11/28 12:11:19;;;;;;;;;;;;;;;3.25;64.37;98480.09;1088406;54;971;-81
2023/11/28 12:12:24;;;;;;;;;;;;;;;3.10;64.58;98486.72;1088492;54;1002;-79
2023/11/28 12:13:25;;;;;;;;;;;;;;;3.18;64.88;98497.44;1088453;54;1346;-81
2023/11/28 12:14:26;;;;;;;;;;;;;;;3.23;64.71;98489.94;1088379;47;1054;-79
2023/11/28 12:15:32;;;;;;;;;;;;;;;3.23;65.01;98486.47;1088398;54;1013;-82
2023/11/28 12:16:44;;;;;;;;;;;;;;;3.12;65.01;98498.81;1088433;54;970;-80
2023/11/28 12:17:56;;;;;;;;;;;;;;;3.21;65.10;98494.53;1088457;47;952;-80
2023/11/28 12:19:00;;;;;;;;;;;;;;;3.21;64.57;98499.81;1088272;47;911;-79
2023/11/28 12:20:04;;;;;;;;;;;;;;;3.00;65.07;98507.00;1088305;47;937;-83
2023/11/28 12:21:06;;;;;;;;;;;;;;;3.08;64.89;98504.50;1088313;47;907;-80
2023/11/28 12:22:13;;;;;;;;;;;;;;;2.96;64.85;98504.59;1088388;54;1001;-80
2023/11/28 12:23:14;;;;;;;;;;;;;;;3.00;64.98;98509.63;1088742;47;1344;-82
2023/11/28 12:24:20;;;;;;;;;;;;;;;3.06;65.13;98509.94;1088377;47;910;-81
2023/11/28 12:25:21;;;;;;;;;;;;;;;3.00;65.35;98504.34;1088295;54;925;-80
2023/11/28 12:26:26;;;;;;;;;;;;;;;3.03;65.55;98512.84;1088320;47;961;-82
2023/11/28 12:27:27;;;;;;;;;;;;;;;3.04;65.23;98513.66;1088246;54;1005;-81
2023/11/28 12:28:31;;;;;;;;;;;;;;;3.12;65.06;98521.75;1088422;54;989;-80
2023/11/28 12:29:32;;;;;;;;;;;;;;;3.08;65.56;98523.81;1088291;54;1007;-81
2023/11/28 12:30:44;;;;;;;;;;;;;;;2.99;66.02;98526.44;1088332;54;999;-80
2023/11/28 12:31:46;;;;;;;;;;;;;;;3.11;65.64;98534.13;1088333;54;982;-79
2023/11/28 12:33:01;;;;;;;;;;;;;;;3.10;65.71;98527.16;1088298;47;1006;-81
2023/11/28 12:42:20;;;;;;;;;;;;;;;3.15;64.58;98555.00;1088485;54;1913;-80
2023/11/28 12:43:27;;;;;;;;;;;;;;;3.08;64.65;98558.16;1088610;47;1386;-81
2023/11/28 12:44:32;;;;;;;;;;;;;;;3.10;64.57;98558.03;1088298;47;824;-81
2023/11/28 12:45:33;;;;;;;;;;;;;;;3.17;64.19;98555.66;1088273;47;931;-81
2023/11/28 12:46:40;;;;;;;;;;;;;;;3.22;64.29;98558.75;1088206;47;959;-81
2023/11/28 12:47:44;;;;;;;;;;;;;;;3.19;64.42;98565.16;1088399;54;957;-81
2023/11/28 12:48:48;;;;;;;;;;;;;;;3.16;64.29;98569.88;1088253;54;916;-81
2023/11/28 12:49:51;;;;;;;;;;;;;;;3.09;64.47;98572.19;1088345;54;1009;-81
2023/11/28 12:50:52;;;;;;;;;;;;;;;3.04;64.72;98571.75;1088954;47;922;-80
2023/11/28 12:51:59;;;;;;;;;;;;;;;3.11;64.26;98562.34;1088705;54;982;-81
2023/11/28 12:53:00;;;;;;;;;;;;;;;3.16;64.32;98569.88;1088699;46;1388;-79
2023/11/28 12:54:04;;;;;;;;;;;;;;;3.06;64.62;98575.09;1088686;54;993;-80
2023/11/28 12:55:13;;;;;;;;;;;;;;;3.13;64.56;98565.66;1088604;47;911;-80
2023/11/28 12:56:16;;;;;;;;;;;;;;;3.16;64.59;98573.34;1088636;54;946;-79
2023/11/28 12:57:17;;;;;;;;;;;;;;;3.10;64.20;98579.16;1088654;47;894;-80
2023/11/28 12:58:18;;;;;;;;;;;;;;;3.12;64.30;98585.97;1088636;46;1067;-81
2023/11/28 12:59:35;;;;;;;;;;;;;;;3.07;64.65;98574.94;1088643;54;1852;-81
2023/11/28 13:00:36;;;;;;;;;;;;;;;3.15;64.79;98579.56;1088605;54;887;-80
2023/11/28 13:01:46;;;;;;;;;;;;;;;3.24;64.66;98583.25;1088669;47;1002;-79
2023/11/28 13:02:50;;;;;;;;;;;;;;;3.16;64.92;98591.00;1088697;54;931;-80
2023/11/28 13:03:53;;;;;;;;;;;;;;;3.20;64.59;98585.31;1088539;47;1276;-80
2023/11/28 13:05:10;;;;;;;;;;;;;;;3.09;64.74;98593.31;1088731;54;1049;-80
2023/11/28 13:06:14;;;;;;;;;;;;;;;3.19;64.70;98590.72;1088582;54;845;-79
2023/11/28 13:07:14;;;;;;;;;;;;;;;3.12;64.78;98591.25;1088671;54;947;-79
2023/11/28 13:08:18;;;;;;;;;;;;;;;3.08;65.01;98597.75;1088749;54;964;-80
2023/11/28 13:09:19;;;;;;;;;;;;;;;3.20;64.82;98602.94;1088652;54;1043;-81
2023/11/28 13:10:26;;;;;;;;;;;;;;;3.18;64.83;98603.09;1088609;47;953;-82
2023/11/28 13:11:29;;;;;;;;;;;;;;;3.28;64.57;98603.97;1088993;46;982;-80
2023/11/28 13:12:33;;;;;;;;;;;;;;;3.26;64.56;98605.91;1088642;47;939;-79
2023/11/28 13:13:33;;;;;;;;;;;;;;;3.24;64.68;98613.13;1088469;47;1179;-80
2023/11/28 13:14:43;;;;;;;;;;;;;;;3.23;64.56;98603.50;1088607;54;1040;-80
2023/11/28 13:15:44;;;;;;;;;;;;;;;3.19;64.82;98609.19;1088710;54;1021;-81
2023/11/28 13:16:50;;;;;;;;;;;;;;;3.16;64.68;98617.41;1088573;54;956;-80
2023/11/28 13:17:51;;;;;;;;;;;;;;;3.21;64.73;98609.91;1088496;54;909;-79
2023/11/28 13:18:54;;;;;;;;;;;;;;;3.18;64.87;98615.44;1088603;54;958;-79
2023/11/28 13:21:31;;;;;;;;;;;;;;;3.32;64.22;98616.88;1088844;46;908;-80